MSC Krittika — H3RV — position and weather

sailwx.info

Track history (hours):
 
Tides and Currents Weather Stations Pressure Air Temp Water Temp Dewpoint Dewpoint Depression Visibility Wind Speed Wind Dir Waves Ship Positions

MSC Krittika

Last reported at 2015-Mar-24 16:26 UTC. Time now 2015-Mar-30 20:01 UTC.
Position S 26°44' E 153°11'.

Length 202 m; draft 12.1 m.

Type: Ship (hazmat cat A). MMSI: 354725000.

Date/timePositionNaut miles runAvg speedWind from/ knotsBaromVisibWave heightAir tempDewpointWater temp
2015-Mar-24 16:26S 26°44' E 153°11'1212.6
2015-Mar-24 15:30S 26°56' E 153°12'1415.0
2015-Mar-24 14:34S 27°08' E 153°21'1414.1
2015-Mar-24 13:34S 27°19' E 153°12'3 2.9
2015-Mar-24 12:33S 27°22' E 153°11'0 0.0
2015-Mar-24 11:32S 27°22' E 153°11'0 0.0
2015-Mar-24 10:33S 27°22' E 153°11'0 0.0
2015-Mar-24 09:27S 27°22' E 153°11'0 0.0
2015-Mar-24 08:32S 27°22' E 153°11'0 0.0
2015-Mar-24 07:33S 27°22' E 153°11'0 0.0
2015-Mar-24 06:32S 27°22' E 153°11'0 0.0
2015-Mar-24 05:32S 27°22' E 153°11'0 0.0
2015-Mar-24 04:32S 27°22' E 153°11'0 0.0
2015-Mar-24 03:24S 27°22' E 153°11'0 0.0
2015-Mar-24 02:11S 27°22' E 153°11'0 0.0
2015-Mar-24 01:14S 27°22' E 153°11'0 0.0
2015-Mar-24 00:24S 27°22' E 153°11'0 0.0
2015-Mar-23 23:24S 27°22' E 153°11'0 0.0
2015-Mar-23 22:23S 27°22' E 153°11'0 0.0
2015-Mar-23 21:32S 27°22' E 153°11'0 0.0
2015-Mar-23 19:26S 27°22' E 153°11'0 0.0
2015-Mar-23 16:18S 27°22' E 153°11'0 0.0
2015-Mar-23 15:32S 27°22' E 153°11'0 0.0
2015-Mar-23 14:32S 27°22' E 153°11'0 0.0
2015-Mar-23 13:32S 27°22' E 153°11'1 1.3
2015-Mar-23 12:33S 27°21' E 153°11'1313.5
2015-Mar-23 11:33S 27°10' E 153°21'1716.6
2015-Mar-23 10:30S 26°55' E 153°12'1312.1
2015-Mar-23 09:26S 26°42' E 153°12'7 8.0
2015-Mar-23 08:31S 26°45' E 153°20'2015.1
2015-Mar-23 07:12S 26°54' E 153°40'1315.6
2015-Mar-23 06:23S 26°59' E 153°53'  
2015-Mar-20 05:33S 36°18' E 174°59'1312.8
2015-Mar-20 04:33S 36°30' E 174°59'1211.9
2015-Mar-20 03:33S 36°41' E 174°53'8 8.1
2015-Mar-20 02:33S 36°49' E 174°50'3 2.8
2015-Mar-20 01:33S 36°51' E 174°47'0 0.0
2015-Mar-20 00:33S 36°51' E 174°47'0 0.0
2015-Mar-19 23:33S 36°51' E 174°47'0 0.0
2015-Mar-19 22:33S 36°51' E 174°47'0 0.0
2015-Mar-19 21:33S 36°51' E 174°47'0 0.0
2015-Mar-19 20:33S 36°51' E 174°47'0 0.0
2015-Mar-19 19:33S 36°51' E 174°47'0 0.0
2015-Mar-19 18:33S 36°51' E 174°47'0 0.0
2015-Mar-19 17:33S 36°51' E 174°47'0 0.0
2015-Mar-19 16:33S 36°51' E 174°47'0 0.0
2015-Mar-19 15:33S 36°51' E 174°47'0 0.0
2015-Mar-19 14:33S 36°51' E 174°47'0 0.0
2015-Mar-19 13:33S 36°51' E 174°47'0 0.0
2015-Mar-19 12:33S 36°51' E 174°47'0 0.0
2015-Mar-19 11:33S 36°51' E 174°47'0 0.0
2015-Mar-19 10:33S 36°51' E 174°47'2 2.3
2015-Mar-19 09:33S 36°50' E 174°50'1111.1
2015-Mar-19 08:33S 36°40' E 174°55'1312.6
2015-Mar-19 07:33S 36°30' E 175°05'1313.0
2015-Mar-19 06:33S 36°22' E 175°18'1714.5
2015-Mar-19 05:23S 36°27' E 175°38'  
Track history (hours):
 
Tides and Currents Weather Stations Pressure Air Temp Water Temp Dewpoint Dewpoint Depression Visibility Wind Speed Wind Dir Waves Ship Positions

MSC Krittika

Last reported at 2015-Mar-24 16:26 UTC. Time now 2015-Mar-30 20:01 UTC.
Position S 26°44' E 153°11'.

Length 202 m; draft 12.1 m.

Type: Ship (hazmat cat A). MMSI: 354725000.

Date/timePositionNaut miles runAvg speedWind from/ knotsBaromVisibWave heightAir tempDewpointWater temp
2015-Mar-24 16:26S 26°44' E 153°11'1212.6
2015-Mar-24 15:30S 26°56' E 153°12'1415.0
2015-Mar-24 14:34S 27°08' E 153°21'1414.1
2015-Mar-24 13:34S 27°19' E 153°12'3 2.9
2015-Mar-24 12:33S 27°22' E 153°11'0 0.0
2015-Mar-24 11:32S 27°22' E 153°11'0 0.0
2015-Mar-24 10:33S 27°22' E 153°11'0 0.0
2015-Mar-24 09:27S 27°22' E 153°11'0 0.0
2015-Mar-24 08:32S 27°22' E 153°11'0 0.0
2015-Mar-24 07:33S 27°22' E 153°11'0 0.0
2015-Mar-24 06:32S 27°22' E 153°11'0 0.0
2015-Mar-24 05:32S 27°22' E 153°11'0 0.0
2015-Mar-24 04:32S 27°22' E 153°11'0 0.0
2015-Mar-24 03:24S 27°22' E 153°11'0 0.0
2015-Mar-24 02:11S 27°22' E 153°11'0 0.0
2015-Mar-24 01:14S 27°22' E 153°11'0 0.0
2015-Mar-24 00:24S 27°22' E 153°11'0 0.0
2015-Mar-23 23:24S 27°22' E 153°11'0 0.0
2015-Mar-23 22:23S 27°22' E 153°11'0 0.0
2015-Mar-23 21:32S 27°22' E 153°11'0 0.0
2015-Mar-23 19:26S 27°22' E 153°11'0 0.0
2015-Mar-23 16:18S 27°22' E 153°11'0 0.0
2015-Mar-23 15:32S 27°22' E 153°11'0 0.0
2015-Mar-23 14:32S 27°22' E 153°11'0 0.0
2015-Mar-23 13:32S 27°22' E 153°11'1 1.3
2015-Mar-23 12:33S 27°21' E 153°11'1313.5
2015-Mar-23 11:33S 27°10' E 153°21'1716.6
2015-Mar-23 10:30S 26°55' E 153°12'1312.1
2015-Mar-23 09:26S 26°42' E 153°12'7 8.0
2015-Mar-23 08:31S 26°45' E 153°20'2015.1
2015-Mar-23 07:12S 26°54' E 153°40'1315.6
2015-Mar-23 06:23S 26°59' E 153°53'  
2015-Mar-20 05:33S 36°18' E 174°59'1312.8
2015-Mar-20 04:33S 36°30' E 174°59'1211.9
2015-Mar-20 03:33S 36°41' E 174°53'8 8.1
2015-Mar-20 02:33S 36°49' E 174°50'3 2.8
2015-Mar-20 01:33S 36°51' E 174°47'0 0.0
2015-Mar-20 00:33S 36°51' E 174°47'0 0.0
2015-Mar-19 23:33S 36°51' E 174°47'0 0.0
2015-Mar-19 22:33S 36°51' E 174°47'0 0.0
2015-Mar-19 21:33S 36°51' E 174°47'0 0.0
2015-Mar-19 20:33S 36°51' E 174°47'0 0.0
2015-Mar-19 19:33S 36°51' E 174°47'0 0.0
2015-Mar-19 18:33S 36°51' E 174°47'0 0.0
2015-Mar-19 17:33S 36°51' E 174°47'0 0.0
2015-Mar-19 16:33S 36°51' E 174°47'0 0.0
2015-Mar-19 15:33S 36°51' E 174°47'0 0.0
2015-Mar-19 14:33S 36°51' E 174°47'0 0.0
2015-Mar-19 13:33S 36°51' E 174°47'0 0.0
2015-Mar-19 12:33S 36°51' E 174°47'0 0.0
2015-Mar-19 11:33S 36°51' E 174°47'0 0.0
2015-Mar-19 10:33S 36°51' E 174°47'2 2.3
2015-Mar-19 09:33S 36°50' E 174°50'1111.1
2015-Mar-19 08:33S 36°40' E 174°55'1312.6
2015-Mar-19 07:33S 36°30' E 175°05'1313.0
2015-Mar-19 06:33S 36°22' E 175°18'1714.5
2015-Mar-19 05:23S 36°27' E 175°38'  

Dump ship's entire track history